createdAt,value
2023-10-01T00:00:30.478Z,100.00
2023-10-01T00:03:33.371Z,100.00
2023-10-01T00:06:37.196Z,100.00
2023-10-01T00:09:39.911Z,100.00
2023-10-01T00:12:47.893Z,100.00
2023-10-01T00:15:51.008Z,100.00
2023-10-01T00:18:55.617Z,100.00
2023-10-01T00:21:59.030Z,100.00
2023-10-01T00:25:01.863Z,100.00
2023-10-01T00:28:06.209Z,100.00
2023-10-01T00:31:09.218Z,100.00
2023-10-01T00:34:12.387Z,100.00
2023-10-01T00:37:15.319Z,100.00
2023-10-01T00:40:19.220Z,100.00
2023-10-01T00:43:31.463Z,100.00
2023-10-01T00:46:35.506Z,100.00
2023-10-01T00:49:48.114Z,100.00
2023-10-01T00:52:53.293Z,100.00
2023-10-01T00:55:56.564Z,100.00
2023-10-01T00:58:59.471Z,100.00
2023-10-01T01:02:07.564Z,100.00
2023-10-01T01:05:24.827Z,100.00
2023-10-01T01:08:48.346Z,100.00
2023-10-01T01:11:51.754Z,100.00
2023-10-01T01:14:56.369Z,100.00
2023-10-01T01:18:01.441Z,100.00
2023-10-01T01:21:11.318Z,100.00
2023-10-01T01:24:15.204Z,100.00
2023-10-01T01:27:18.925Z,100.00
2023-10-01T01:30:27.921Z,100.00
2023-10-01T01:33:34.921Z,100.00
2023-10-01T01:36:38.548Z,100.00
2023-10-01T01:39:52.944Z,100.00
2023-10-01T01:42:57.778Z,100.00
2023-10-01T01:46:04.966Z,100.00
2023-10-01T01:49:11.342Z,100.00
2023-10-01T01:52:14.147Z,100.00
2023-10-01T01:55:24.823Z,100.00
2023-10-01T01:58:27.969Z,100.00
2023-10-01T02:01:31.421Z,100.00
2023-10-01T02:04:34.310Z,100.00
2023-10-01T02:07:37.082Z,100.00
2023-10-01T02:10:48.524Z,100.00
2023-10-01T02:13:53.122Z,100.00
2023-10-01T02:17:17.992Z,100.00
2023-10-01T02:20:28.482Z,100.00
2023-10-01T02:23:34.643Z,100.00
2023-10-01T02:26:38.227Z,100.00
2023-10-01T02:29:47.713Z,100.00
2023-10-01T02:33:13.205Z,100.00
2023-10-01T02:36:19.729Z,100.00
2023-10-01T02:39:29.063Z,100.00
2023-10-01T02:42:32.866Z,100.00
2023-10-01T02:45:37.337Z,100.00
2023-10-01T02:48:42.302Z,100.00
2023-10-01T02:51:50.900Z,100.00
2023-10-01T02:54:59.174Z,100.00
2023-10-01T02:58:19.454Z,100.00
2023-10-01T03:01:22.710Z,100.00
2023-10-01T03:04:29.122Z,100.00
2023-10-01T03:07:38.162Z,100.00
2023-10-01T03:10:41.066Z,100.00
2023-10-01T03:13:48.177Z,100.00
2023-10-01T03:16:55.443Z,100.00
2023-10-01T03:20:12.986Z,100.00
2023-10-01T03:23:22.473Z,100.00
2023-10-01T03:26:27.549Z,100.00
2023-10-01T03:29:36.101Z,100.00
2023-10-01T03:32:42.049Z,100.00
2023-10-01T03:35:49.483Z,100.00
2023-10-01T03:38:59.469Z,100.00
2023-10-01T03:42:16.625Z,100.00
2023-10-01T03:45:27.718Z,100.00
2023-10-01T03:48:43.633Z,100.00
2023-10-01T03:51:59.950Z,100.00
2023-10-01T03:55:16.859Z,100.00
2023-10-01T03:58:19.932Z,100.00
2023-10-01T04:01:56.831Z,100.00
2023-10-01T04:05:06.677Z,100.00
2023-10-01T04:08:11.553Z,100.00
2023-10-01T04:11:14.592Z,100.00
2023-10-01T04:14:19.248Z,100.00
2023-10-01T04:17:22.361Z,100.00
2023-10-01T04:20:29.849Z,100.00
2023-10-01T04:23:49.049Z,100.00
2023-10-01T04:26:51.980Z,100.00
2023-10-01T04:30:01.665Z,100.00
2023-10-01T04:33:21.311Z,100.00
2023-10-01T04:36:24.118Z,100.00
2023-10-01T04:39:26.898Z,100.00
2023-10-01T04:42:29.720Z,100.00
2023-10-01T04:45:38.262Z,100.00
2023-10-01T04:48:41.150Z,100.00
2023-10-01T04:51:46.776Z,100.00
2023-10-01T04:54:52.858Z,100.00
2023-10-01T04:57:58.945Z,100.00
2023-10-01T05:01:04.417Z,100.00
2023-10-01T05:04:10.567Z,100.00
2023-10-01T05:07:16.518Z,100.00
2023-10-01T05:10:22.209Z,100.00
2023-10-01T05:13:25.299Z,100.00
2023-10-01T05:16:28.314Z,100.00
2023-10-01T05:19:31.308Z,100.00
2023-10-01T05:22:48.204Z,100.00
2023-10-01T05:25:52.060Z,100.00
2023-10-01T05:28:55.988Z,100.00
2023-10-01T05:31:58.933Z,100.00
2023-10-01T05:35:16.652Z,100.00
2023-10-01T05:38:20.618Z,100.00
2023-10-01T05:41:34.102Z,100.00
2023-10-01T05:44:37.061Z,100.00
2023-10-01T05:47:56.486Z,100.00
2023-10-01T05:51:03.346Z,100.00
2023-10-01T05:54:06.232Z,100.00
2023-10-01T05:57:11.976Z,100.00
2023-10-01T06:00:27.781Z,100.00
2023-10-01T06:03:32.532Z,100.00
2023-10-01T06:06:37.776Z,100.00
2023-10-01T06:09:43.260Z,100.00
2023-10-01T06:12:52.179Z,100.00
2023-10-01T06:15:57.688Z,100.00
2023-10-01T06:19:01.603Z,100.00
2023-10-01T06:22:14.052Z,100.00
2023-10-01T06:25:41.853Z,100.00
2023-10-01T06:28:45.493Z,100.00
2023-10-01T06:32:03.592Z,100.00
2023-10-01T06:35:06.918Z,100.00
2023-10-01T06:38:15.356Z,100.00
2023-10-01T06:41:27.591Z,100.00
2023-10-01T06:44:30.371Z,100.00
2023-10-01T06:47:34.189Z,100.00
2023-10-01T06:50:42.764Z,100.00
2023-10-01T06:53:48.774Z,100.00
2023-10-01T06:56:52.267Z,100.00
2023-10-01T07:00:00.396Z,100.00
2023-10-01T07:03:20.012Z,100.00
2023-10-01T07:06:23.477Z,100.00
2023-10-01T07:09:26.564Z,100.00
2023-10-01T07:12:30.665Z,100.00
2023-10-01T07:15:41.842Z,100.00
2023-10-01T07:18:49.048Z,100.00
2023-10-01T07:21:58.545Z,100.00
2023-10-01T07:25:27.268Z,100.00
2023-10-01T07:28:31.979Z,100.00
2023-10-01T07:31:38.153Z,100.00
2023-10-01T07:34:41.746Z,100.00
2023-10-01T07:37:44.638Z,100.00
2023-10-01T07:40:59.757Z,100.00
2023-10-01T07:44:09.561Z,100.00
2023-10-01T07:47:29.790Z,99.32
2023-10-01T07:50:32.884Z,97.54
2023-10-01T07:53:35.728Z,96.91
2023-10-01T07:56:41.148Z,95.86
2023-10-01T07:59:44.802Z,95.36
2023-10-01T08:03:06.938Z,91.45
2023-10-01T08:06:14.043Z,90.82
2023-10-01T08:09:16.803Z,91.56
2023-10-01T08:12:21.291Z,93.50
2023-10-01T08:15:51.946Z,91.56
2023-10-01T08:19:00.209Z,90.18
2023-10-01T08:22:15.217Z,86.94
2023-10-01T08:25:20.933Z,83.15
2023-10-01T08:28:27.050Z,80.35
2023-10-01T08:31:48.405Z,78.96
2023-10-01T08:35:03.205Z,78.39
2023-10-01T08:38:16.999Z,75.49
2023-10-01T08:41:35.050Z,78.26
2023-10-01T08:44:47.542Z,77.92
2023-10-01T08:47:51.423Z,77.78
2023-10-01T08:50:54.673Z,75.31
2023-10-01T08:53:57.960Z,72.49
2023-10-01T08:57:01.155Z,76.66
2023-10-01T09:00:21.925Z,73.31
2023-10-01T09:03:36.235Z,74.43
2023-10-01T09:07:01.054Z,74.00
2023-10-01T09:10:08.759Z,72.53
2023-10-01T09:13:22.531Z,71.67
2023-10-01T09:16:35.667Z,70.82
2023-10-01T09:19:52.148Z,70.03
2023-10-01T09:23:00.945Z,69.97
2023-10-01T09:26:03.931Z,71.22
2023-10-01T09:29:22.597Z,67.31
2023-10-01T09:32:53.561Z,67.65
2023-10-01T09:36:01.078Z,69.77
2023-10-01T09:39:08.122Z,68.43
2023-10-01T09:42:26.445Z,66.79
2023-10-01T09:45:35.976Z,66.02
2023-10-01T09:48:50.147Z,65.49
2023-10-01T09:51:55.042Z,61.10
2023-10-01T09:55:08.844Z,60.76
2023-10-01T09:58:12.724Z,59.37
2023-10-01T10:01:19.606Z,57.04
2023-10-01T10:04:22.728Z,59.99
2023-10-01T10:07:26.617Z,59.70
2023-10-01T10:10:29.831Z,59.96
2023-10-01T10:13:39.316Z,61.13
2023-10-01T10:17:09.147Z,61.70
2023-10-01T10:20:27.032Z,59.68
2023-10-01T10:23:57.033Z,60.54
2023-10-01T10:27:10.457Z,55.53
2023-10-01T10:30:18.155Z,55.36
2023-10-01T10:33:31.814Z,54.33
2023-10-01T10:36:54.120Z,56.78
2023-10-01T10:40:04.294Z,56.24
2023-10-01T10:43:18.476Z,55.31
2023-10-01T10:46:24.697Z,54.69
2023-10-01T10:49:53.025Z,53.95
2023-10-01T10:53:00.376Z,52.45
2023-10-01T10:56:10.350Z,52.10
2023-10-01T10:59:18.401Z,52.44
2023-10-01T11:02:22.231Z,52.13
2023-10-01T11:05:32.423Z,51.71
2023-10-01T11:08:38.837Z,49.34
2023-10-01T11:11:47.312Z,51.28
2023-10-01T11:15:19.891Z,53.10
2023-10-01T11:18:29.368Z,49.14
2023-10-01T11:21:36.357Z,49.73
2023-10-01T11:24:44.647Z,48.58
2023-10-01T11:27:56.428Z,49.41
2023-10-01T11:31:00.257Z,48.89
2023-10-01T11:34:23.504Z,47.80
2023-10-01T11:37:29.389Z,49.54
2023-10-01T11:40:50.804Z,48.45
2023-10-01T11:44:03.501Z,50.68
2023-10-01T11:47:06.491Z,47.63
2023-10-01T11:50:09.497Z,45.43
2023-10-01T11:53:16.947Z,46.15
2023-10-01T11:56:20.544Z,46.04
2023-10-01T11:59:24.429Z,44.42
2023-10-01T12:02:45.791Z,46.02
2023-10-01T12:05:49.919Z,45.56
2023-10-01T12:08:54.858Z,45.26
2023-10-01T12:12:07.656Z,44.50
2023-10-01T12:15:30.101Z,43.50
2023-10-01T12:18:45.658Z,45.26
2023-10-01T12:21:50.101Z,46.37
2023-10-01T12:24:59.757Z,50.18
2023-10-01T12:28:16.658Z,51.74
2023-10-01T12:31:24.913Z,52.26
2023-10-01T12:34:27.822Z,52.74
2023-10-01T12:37:41.300Z,53.98
2023-10-01T12:40:57.050Z,52.39
2023-10-01T12:44:19.769Z,52.65
2023-10-01T12:47:42.143Z,52.58
2023-10-01T12:51:01.464Z,49.84
2023-10-01T12:54:08.633Z,51.12
2023-10-01T12:57:19.703Z,51.61
2023-10-01T13:00:26.143Z,50.49
2023-10-01T13:03:30.697Z,46.79
2023-10-01T13:06:33.519Z,42.14
2023-10-01T13:09:42.143Z,43.32
2023-10-01T13:12:57.706Z,43.43
2023-10-01T13:16:02.300Z,42.72
2023-10-01T13:19:19.241Z,42.00
2023-10-01T13:22:22.083Z,42.20
2023-10-01T13:25:25.464Z,42.53
2023-10-01T13:28:47.426Z,41.49
2023-10-01T13:32:03.814Z,40.90
2023-10-01T13:35:26.883Z,41.98
2023-10-01T13:38:33.077Z,41.68
2023-10-01T13:41:35.802Z,44.27
2023-10-01T13:44:57.477Z,44.20
2023-10-01T13:48:18.576Z,43.51
2023-10-01T13:51:39.771Z,43.76
2023-10-01T13:55:01.563Z,41.79
2023-10-01T13:58:36.507Z,42.83
2023-10-01T14:02:00.835Z,43.32
2023-10-01T14:05:23.348Z,42.18
2023-10-01T14:08:47.309Z,42.13
2023-10-01T14:11:55.926Z,42.94
2023-10-01T14:14:58.580Z,44.49
2023-10-01T14:18:10.211Z,45.95
2023-10-01T14:21:17.909Z,45.48
2023-10-01T14:24:23.379Z,45.16
2023-10-01T14:27:26.304Z,43.88
2023-10-01T14:30:29.355Z,44.03
2023-10-01T14:33:33.682Z,43.83
2023-10-01T14:36:42.998Z,43.28
2023-10-01T14:39:49.173Z,42.79
2023-10-01T14:43:01.774Z,42.89
2023-10-01T14:46:05.089Z,41.80
2023-10-01T14:49:07.931Z,41.84
2023-10-01T14:52:24.402Z,42.31
2023-10-01T14:55:28.863Z,42.82
2023-10-01T14:58:34.782Z,43.16
2023-10-01T15:01:42.265Z,43.01
2023-10-01T15:04:45.092Z,43.08
2023-10-01T15:07:47.869Z,42.69
2023-10-01T15:10:51.387Z,43.31
2023-10-01T15:13:55.853Z,43.14
2023-10-01T15:17:10.442Z,44.19
2023-10-01T15:20:29.825Z,45.33
2023-10-01T15:23:33.285Z,44.25
2023-10-01T15:26:45.216Z,46.52
2023-10-01T15:29:54.967Z,47.36
2023-10-01T15:33:11.135Z,49.54
2023-10-01T15:36:16.670Z,49.80
2023-10-01T15:39:29.316Z,50.50
2023-10-01T15:42:37.399Z,51.84
2023-10-01T15:45:45.533Z,52.42
2023-10-01T15:48:51.156Z,53.36
2023-10-01T15:51:53.967Z,54.69
2023-10-01T15:54:59.649Z,55.79
2023-10-01T15:58:03.957Z,57.40
2023-10-01T16:01:06.782Z,59.80
2023-10-01T16:04:16.047Z,62.93
2023-10-01T16:07:19.255Z,65.78
2023-10-01T16:10:22.024Z,68.79
2023-10-01T16:13:31.466Z,71.57
2023-10-01T16:16:34.516Z,73.72
2023-10-01T16:19:37.581Z,75.76
2023-10-01T16:22:41.136Z,77.07
2023-10-01T16:25:47.238Z,78.43
2023-10-01T16:28:55.022Z,80.08
2023-10-01T16:31:58.962Z,82.51
2023-10-01T16:35:01.902Z,83.42
2023-10-01T16:38:05.117Z,85.62
2023-10-01T16:41:18.074Z,87.50
2023-10-01T16:44:20.900Z,89.32
2023-10-01T16:47:32.299Z,91.30
2023-10-01T16:51:10.648Z,92.68
2023-10-01T16:54:17.771Z,94.10
2023-10-01T16:57:26.824Z,94.78
2023-10-01T17:00:39.211Z,97.09
2023-10-01T17:03:58.272Z,97.83
2023-10-01T17:07:15.683Z,98.84
2023-10-01T17:10:18.811Z,99.74
2023-10-01T17:13:22.203Z,100.00
2023-10-01T17:16:27.066Z,100.00
2023-10-01T17:19:30.802Z,100.00
2023-10-01T17:22:34.542Z,100.00
2023-10-01T17:25:38.833Z,100.00
2023-10-01T17:28:51.619Z,100.00
2023-10-01T17:32:09.213Z,100.00
2023-10-01T17:35:19.346Z,100.00
2023-10-01T17:38:26.702Z,100.00
2023-10-01T17:41:35.940Z,100.00
2023-10-01T17:44:44.847Z,100.00
2023-10-01T17:47:50.596Z,100.00
2023-10-01T17:50:53.673Z,100.00
2023-10-01T17:54:06.862Z,100.00
2023-10-01T17:57:11.735Z,100.00
2023-10-01T18:00:17.353Z,100.00
2023-10-01T18:03:28.908Z,100.00
2023-10-01T18:06:40.408Z,100.00
2023-10-01T18:09:47.243Z,100.00
2023-10-01T18:12:53.268Z,100.00
2023-10-01T18:15:57.716Z,100.00
2023-10-01T18:19:08.493Z,100.00
2023-10-01T18:22:16.044Z,100.00
2023-10-01T18:25:19.244Z,100.00
2023-10-01T18:28:29.149Z,100.00
2023-10-01T18:31:32.122Z,100.00
2023-10-01T18:34:34.959Z,100.00
2023-10-01T18:37:37.735Z,100.00
2023-10-01T18:40:42.091Z,100.00
2023-10-01T18:43:45.941Z,100.00
2023-10-01T18:46:49.073Z,100.00
2023-10-01T18:49:52.245Z,100.00
2023-10-01T18:52:56.208Z,100.00
2023-10-01T18:55:59.623Z,100.00
2023-10-01T18:59:02.752Z,100.00
2023-10-01T19:02:07.487Z,100.00
2023-10-01T19:05:16.900Z,100.00
2023-10-01T19:08:20.053Z,100.00
2023-10-01T19:11:30.993Z,100.00
2023-10-01T19:14:34.177Z,100.00
2023-10-01T19:17:37.444Z,100.00
2023-10-01T19:20:41.123Z,100.00
2023-10-01T19:23:44.216Z,100.00
2023-10-01T19:26:49.038Z,100.00
2023-10-01T19:29:51.994Z,100.00
2023-10-01T19:32:59.592Z,100.00
2023-10-01T19:36:03.799Z,100.00
2023-10-01T19:39:07.787Z,100.00
2023-10-01T19:42:13.457Z,100.00
2023-10-01T19:45:27.962Z,100.00
2023-10-01T19:48:30.786Z,100.00
2023-10-01T19:51:42.015Z,100.00
2023-10-01T19:54:45.499Z,100.00
2023-10-01T19:57:48.177Z,100.00
2023-10-01T20:00:51.429Z,100.00
2023-10-01T20:04:08.294Z,100.00
2023-10-01T20:07:11.317Z,100.00
2023-10-01T20:10:14.778Z,100.00
2023-10-01T20:13:17.551Z,100.00
2023-10-01T20:16:23.539Z,100.00
2023-10-01T20:19:26.284Z,100.00
2023-10-01T20:22:29.006Z,100.00
2023-10-01T20:25:33.235Z,100.00
2023-10-01T20:28:37.122Z,100.00
2023-10-01T20:31:41.050Z,100.00
2023-10-01T20:34:44.226Z,100.00
2023-10-01T20:37:48.496Z,100.00
2023-10-01T20:40:55.788Z,100.00
2023-10-01T20:44:00.044Z,100.00
2023-10-01T20:47:03.790Z,100.00
2023-10-01T20:50:08.936Z,100.00
2023-10-01T20:53:11.852Z,100.00
2023-10-01T20:56:41.944Z,100.00
2023-10-01T20:59:45.178Z,100.00
2023-10-01T21:02:59.391Z,100.00
2023-10-01T21:06:05.778Z,100.00
2023-10-01T21:09:20.198Z,100.00
2023-10-01T21:12:31.925Z,100.00
2023-10-01T21:15:34.841Z,100.00
2023-10-01T21:18:38.337Z,100.00
2023-10-01T21:21:44.215Z,100.00
2023-10-01T21:24:47.200Z,100.00
2023-10-01T21:28:12.651Z,100.00
2023-10-01T21:31:21.692Z,100.00
2023-10-01T21:34:25.357Z,100.00
2023-10-01T21:37:30.449Z,100.00
2023-10-01T21:40:33.349Z,100.00
2023-10-01T21:43:36.086Z,100.00
2023-10-01T21:46:42.113Z,100.00
2023-10-01T21:49:51.955Z,100.00
2023-10-01T21:52:58.962Z,100.00
2023-10-01T21:56:06.249Z,100.00
2023-10-01T21:59:14.821Z,100.00
2023-10-01T22:02:20.258Z,100.00
2023-10-01T22:05:23.491Z,100.00
2023-10-01T22:08:29.645Z,100.00
2023-10-01T22:11:35.155Z,100.00
2023-10-01T22:14:43.761Z,100.00
2023-10-01T22:17:46.731Z,100.00
2023-10-01T22:20:54.493Z,100.00
2023-10-01T22:23:57.630Z,100.00
2023-10-01T22:27:00.869Z,100.00
2023-10-01T22:30:16.519Z,100.00
2023-10-01T22:33:19.838Z,100.00
2023-10-01T22:36:34.142Z,100.00
2023-10-01T22:39:37.929Z,100.00
2023-10-01T22:42:43.000Z,100.00
2023-10-01T22:45:58.090Z,100.00
2023-10-01T22:49:01.487Z,100.00
2023-10-01T22:52:08.957Z,100.00
2023-10-01T22:55:12.260Z,100.00
2023-10-01T22:58:27.036Z,100.00
2023-10-01T23:01:29.892Z,100.00
2023-10-01T23:04:33.109Z,100.00
2023-10-01T23:07:36.305Z,100.00
2023-10-01T23:10:41.360Z,100.00
2023-10-01T23:13:55.827Z,100.00
2023-10-01T23:16:59.084Z,100.00
2023-10-01T23:20:05.534Z,100.00
2023-10-01T23:23:08.336Z,100.00
2023-10-01T23:26:28.168Z,100.00
2023-10-01T23:29:31.244Z,100.00
2023-10-01T23:32:36.989Z,100.00
2023-10-01T23:35:59.632Z,100.00
2023-10-01T23:39:06.673Z,100.00
2023-10-01T23:42:09.893Z,100.00
2023-10-01T23:45:17.895Z,100.00
2023-10-01T23:48:23.254Z,100.00
2023-10-01T23:51:40.941Z,100.00
2023-10-01T23:54:50.793Z,100.00
2023-10-01T23:58:22.249Z,100.00
